Time;durP1;ratioP1;P1;durP2;ratioP2;P2;SDS_P1;SDS_P2;PMS_P1;PMS_P2;Temp;Humidity;BMP_temperature;BMP_pressure;BME280_temperature;BME280_humidity;BME280_pressure;Samples;Min_cycle;Max_cycle;Signal;HPM_P1;HPM_P2
2022/10/25 00:02:16;;;;;;;;;4.33;2.00;;;;;15.63;100.00;101135.38;4945993;28;45399;-72
2022/10/25 00:04:41;;;;;;;;;1.00;1.00;;;;;15.62;100.00;101137.22;4940850;28;46396;-72
2022/10/25 00:07:06;;;;;;;;;2.00;2.00;;;;;15.61;100.00;101137.41;4940868;28;45341;-72
2022/10/25 00:09:32;;;;;;;;;0.00;0.00;;;;;15.61;100.00;101134.72;4953454;28;45297;-72
2022/10/25 00:11:57;;;;;;;;;1.00;1.00;;;;;15.53;100.00;101123.16;4941353;28;45511;-72
2022/10/25 00:14:22;;;;;;;;;2.00;1.00;;;;;15.59;100.00;101136.78;4940759;28;45483;-72
2022/10/25 00:16:48;;;;;;;;;0.67;0.33;;;;;15.57;100.00;101128.94;4946317;28;45344;-72
2022/10/25 00:19:13;;;;;;;;;1.00;0.67;;;;;15.57;100.00;101130.78;4948372;28;45539;-72
2022/10/25 00:21:39;;;;;;;;;3.00;2.00;;;;;15.53;100.00;101133.88;4940745;28;45301;-72
2022/10/25 00:24:05;;;;;;;;;1.33;1.00;;;;;15.48;100.00;101122.09;4941122;28;45364;-72
2022/10/25 00:26:30;;;;;;;;;2.00;2.00;;;;;15.51;100.00;101124.38;4951661;28;45442;-72
2022/10/25 00:28:55;;;;;;;;;1.00;1.00;;;;;15.48;100.00;101130.13;4942324;28;45483;-72
2022/10/25 00:31:21;;;;;;;;;1.00;1.00;;;;;15.47;100.00;101125.81;4940937;28;45317;-73
2022/10/25 00:33:46;;;;;;;;;0.67;0.00;;;;;15.42;100.00;101126.41;4969045;28;47990;-72
2022/10/25 00:36:15;;;;;;;;;2.67;2.67;;;;;15.39;100.00;101127.59;4940799;28;45279;-72
2022/10/25 00:38:41;;;;;;;;;2.00;2.00;;;;;15.37;100.00;101131.50;4940831;28;45421;-72
2022/10/25 00:41:07;;;;;;;;;1.00;1.00;;;;;15.33;100.00;101117.69;4940634;28;45243;-72
2022/10/25 00:43:42;;;;;;;;;3.67;2.00;;;;;15.27;100.00;101130.00;4948178;28;48310;-72
2022/10/25 00:46:19;;;;;;;;;3.00;1.00;;;;;15.20;100.00;101122.97;4940775;28;45365;-72
2022/10/25 00:48:59;;;;;;;;;2.67;1.67;;;;;15.20;100.00;101126.44;4971673;28;45324;-72
2022/10/25 00:51:32;;;;;;;;;1.00;0.67;;;;;15.12;100.00;101121.25;4956315;28;45317;-72
2022/10/25 00:53:57;;;;;;;;;2.00;2.00;;;;;15.12;100.00;101132.78;4943771;28;46702;-72
2022/10/25 00:56:28;;;;;;;;;2.00;2.00;;;;;15.13;100.00;101136.28;4944274;28;45275;-72
2022/10/25 00:58:59;;;;;;;;;3.33;2.00;;;;;15.09;100.00;101138.53;4944013;28;45504;-72
2022/10/25 01:01:24;;;;;;;;;2.00;1.00;;;;;15.11;100.00;101151.72;4961835;28;46720;-72
2022/10/25 01:03:53;;;;;;;;;1.00;1.00;;;;;15.09;100.00;101151.09;4951681;28;45527;-72
2022/10/25 01:06:27;;;;;;;;;2.00;2.00;;;;;15.08;100.00;101152.13;4943565;28;45376;-72
2022/10/25 01:08:54;;;;;;;;;1.00;1.00;;;;;15.06;100.00;101155.00;4943767;28;45428;-72
2022/10/25 01:11:19;;;;;;;;;2.33;0.67;;;;;15.00;100.00;101151.22;4943516;28;45365;-72
2022/10/25 01:13:45;;;;;;;;;1.67;1.67;;;;;14.98;100.00;101147.09;4951243;28;47466;-72
2022/10/25 01:16:54;;;;;;;;;1.33;1.00;;;;;14.98;100.00;101147.94;4948386;28;45286;-72
2022/10/25 01:19:50;;;;;;;;;2.00;1.00;;;;;14.95;100.00;101160.84;4943918;28;45410;-72
2022/10/25 01:22:32;;;;;;;;;0.00;0.00;;;;;14.91;100.00;101154.25;4951030;28;46350;-72
2022/10/25 01:25:09;;;;;;;;;2.33;1.00;;;;;14.87;100.00;101153.78;4949639;28;45163;-72
2022/10/25 01:27:46;;;;;;;;;1.00;1.00;;;;;14.83;100.00;101156.03;4943698;28;45670;-71
2022/10/25 01:30:19;;;;;;;;;1.00;1.00;;;;;14.81;100.00;101165.28;4955852;28;45402;-72
2022/10/25 01:32:55;;;;;;;;;1.00;1.00;;;;;14.79;100.00;101157.44;4943492;28;46333;-72
2022/10/25 01:36:11;;;;;;;;;2.33;2.33;;;;;14.77;100.00;101156.78;4943173;28;46105;-72
2022/10/25 01:38:49;;;;;;;;;3.33;2.33;;;;;14.74;100.00;101152.63;4915700;28;45499;-72
2022/10/25 01:41:23;;;;;;;;;1.33;0.33;;;;;14.72;100.00;101151.16;4942572;28;45400;-72
2022/10/25 01:43:57;;;;;;;;;2.00;1.33;;;;;14.69;100.00;101152.38;4942965;28;45353;-72
2022/10/25 01:46:31;;;;;;;;;2.00;2.00;;;;;14.69;100.00;101144.34;4949739;28;48131;-73
2022/10/25 01:49:07;;;;;;;;;2.00;2.00;;;;;14.61;100.00;101134.59;4947876;28;45469;-72
2022/10/25 01:51:35;;;;;;;;;1.33;1.33;;;;;14.54;100.00;101130.22;4943578;28;45359;-72
2022/10/25 01:54:01;;;;;;;;;3.67;1.67;;;;;14.54;100.00;101131.03;4942873;28;45520;-72
2022/10/25 01:56:40;;;;;;;;;1.00;1.00;;;;;14.55;100.00;101135.38;4954671;28;46068;-72
2022/10/25 01:59:31;;;;;;;;;3.67;2.00;;;;;14.60;100.00;101151.69;4943939;28;45587;-72
2022/10/25 02:01:59;;;;;;;;;2.00;2.00;;;;;14.60;100.00;101153.50;4960205;28;45357;-73
2022/10/25 02:04:37;;;;;;;;;2.00;2.00;;;;;14.55;100.00;101153.28;4942958;28;45307;-72
2022/10/25 02:07:29;;;;;;;;;2.00;1.00;;;;;14.60;100.00;101153.50;4942371;28;46698;-73
2022/10/25 02:10:05;;;;;;;;;2.00;2.00;;;;;14.59;100.00;101152.72;4947872;28;45380;-72
2022/10/25 02:12:49;;;;;;;;;2.00;1.67;;;;;14.57;100.00;101149.38;4944014;28;45483;-73
2022/10/25 02:15:23;;;;;;;;;1.00;1.00;;;;;14.59;100.00;101149.19;4954239;28;47172;-72
2022/10/25 02:17:57;;;;;;;;;2.00;2.00;;;;;14.61;100.00;101147.16;4956067;28;45305;-72
2022/10/25 02:20:25;;;;;;;;;1.00;1.00;;;;;14.59;100.00;101146.53;4942938;28;45354;-72
2022/10/25 02:22:52;;;;;;;;;1.67;1.00;;;;;14.58;100.00;101152.91;4960471;28;45564;-72
2022/10/25 02:25:20;;;;;;;;;1.67;1.67;;;;;14.56;100.00;101139.72;4946039;28;45288;-72
2022/10/25 02:27:46;;;;;;;;;2.67;2.00;;;;;14.55;100.00;101145.25;4942386;28;45345;-72
2022/10/25 02:30:12;;;;;;;;;2.00;2.00;;;;;14.56;100.00;101134.38;4942573;28;45403;-72
2022/10/25 02:32:37;;;;;;;;;2.00;1.00;;;;;14.51;100.00;101134.09;4948169;28;45341;-72
2022/10/25 02:35:03;;;;;;;;;3.33;3.33;;;;;14.60;100.00;101153.50;4949757;28;45482;-72
2022/10/25 02:37:29;;;;;;;;;1.33;1.00;;;;;14.62;100.00;101146.13;4959172;28;47503;-72
2022/10/25 02:39:55;;;;;;;;;2.00;2.00;;;;;14.60;100.00;101145.50;4951592;28;45334;-73
2022/10/25 02:42:20;;;;;;;;;3.00;1.67;;;;;14.60;100.00;101148.16;4942440;28;45337;-72
2022/10/25 02:44:45;;;;;;;;;2.00;1.00;;;;;14.64;100.00;101152.13;4942345;28;45320;-72
2022/10/25 02:47:11;;;;;;;;;3.33;3.33;;;;;14.58;100.00;101155.56;4942190;28;46437;-72
2022/10/25 02:49:36;;;;;;;;;2.00;2.00;;;;;14.57;100.00;101153.91;4942249;28;45710;-73
2022/10/25 02:52:01;;;;;;;;;2.00;2.00;;;;;14.52;100.00;101149.94;4942427;28;45322;-72
2022/10/25 02:54:26;;;;;;;;;3.00;1.00;;;;;14.55;100.00;101162.13;4958681;28;47261;-72
2022/10/25 02:56:52;;;;;;;;;3.00;3.00;;;;;14.51;100.00;101163.50;4951654;28;46162;-72
2022/10/25 02:59:18;;;;;;;;;1.67;1.67;;;;;14.44;100.00;101149.25;4941852;28;45279;-72
2022/10/25 03:01:44;;;;;;;;;2.00;2.00;;;;;14.42;100.00;101156.66;4947199;28;45409;-73
2022/10/25 03:04:09;;;;;;;;;2.00;1.33;;;;;14.41;100.00;101155.81;4941896;28;45492;-72
2022/10/25 03:06:35;;;;;;;;;1.00;1.00;;;;;14.34;100.00;101158.41;4946923;28;48605;-72
2022/10/25 03:09:00;;;;;;;;;1.33;1.33;;;;;14.31;100.00;101156.09;4949251;28;45374;-72
2022/10/25 03:11:25;;;;;;;;;2.00;2.00;;;;;14.19;100.00;101142.41;4941552;28;45231;-72
2022/10/25 03:13:51;;;;;;;;;0.67;0.67;;;;;14.26;100.00;101158.53;4950526;28;47299;-73
2022/10/25 03:16:16;;;;;;;;;3.00;1.00;;;;;14.23;100.00;101162.41;4973912;28;48397;-72
2022/10/25 03:18:41;;;;;;;;;2.00;0.67;;;;;14.19;100.00;101165.66;4941807;28;45418;-72
2022/10/25 03:21:07;;;;;;;;;2.00;2.00;;;;;14.16;100.00;101168.69;4941791;28;45135;-73
2022/10/25 03:23:33;;;;;;;;;1.67;1.00;;;;;14.12;100.00;101165.56;4955357;28;45527;-72
2022/10/25 03:25:59;;;;;;;;;2.00;2.00;;;;;14.06;100.00;101163.63;4941781;28;45366;-72
2022/10/25 03:28:28;;;;;;;;;1.67;1.33;;;;;14.07;100.00;101168.78;4953794;28;45468;-72
2022/10/25 03:30:54;;;;;;;;;2.00;2.00;;;;;14.04;100.00;101157.66;4946824;28;45293;-72
2022/10/25 03:33:20;;;;;;;;;3.67;1.33;;;;;14.07;100.00;101167.97;4975947;28;47501;-73
2022/10/25 03:35:49;;;;;;;;;2.00;2.00;;;;;14.06;100.00;101168.97;4975530;28;47979;-73
2022/10/25 03:38:14;;;;;;;;;1.67;1.00;;;;;14.12;100.00;101182.44;4950251;28;45831;-72
2022/10/25 03:40:40;;;;;;;;;1.00;1.00;;;;;14.15;100.00;101183.91;4941329;28;46494;-72
2022/10/25 03:43:05;;;;;;;;;1.33;1.33;;;;;14.12;100.00;101174.41;4941287;28;45490;-72
2022/10/25 03:45:31;;;;;;;;;2.00;2.00;;;;;14.14;100.00;101163.53;4953629;28;47990;-73
2022/10/25 03:47:56;;;;;;;;;0.67;0.67;;;;;14.21;100.00;101183.16;4941419;28;45516;-72
2022/10/25 03:50:21;;;;;;;;;4.00;2.00;;;;;14.22;100.00;101176.78;4961518;28;45409;-73
2022/10/25 03:52:46;;;;;;;;;2.33;0.67;;;;;14.30;100.00;101183.06;4940952;28;52702;-72
2022/10/25 03:55:12;;;;;;;;;2.67;1.67;;;;;14.35;100.00;101185.97;4940012;28;46965;-73
2022/10/25 03:57:37;;;;;;;;;3.00;1.67;;;;;14.35;100.00;101184.13;4941017;28;45270;-72
2022/10/25 04:00:04;;;;;;;;;3.33;2.00;;;;;14.39;100.00;101177.41;4949801;28;45373;-73
2022/10/25 04:02:29;;;;;;;;;3.33;3.33;;;;;14.44;100.00;101176.81;4946175;28;45367;-72
2022/10/25 04:04:54;;;;;;;;;2.00;1.50;;;;;14.54;100.00;101189.06;4941153;28;45354;-72
2022/10/25 04:07:20;;;;;;;;;1.67;1.33;;;;;14.57;100.00;101180.63;4940996;28;45505;-72
2022/10/25 04:09:45;;;;;;;;;2.33;1.00;;;;;14.61;100.00;101190.78;4941087;28;45274;-72
2022/10/25 04:12:11;;;;;;;;;2.67;2.67;;;;;14.68;100.00;101192.69;4939741;28;47080;-72
2022/10/25 04:14:36;;;;;;;;;2.67;2.33;;;;;14.70;100.00;101188.00;4953040;28;48310;-72
2022/10/25 04:17:02;;;;;;;;;2.67;2.00;;;;;14.73;100.00;101192.97;4941273;28;45152;-72
2022/10/25 04:19:27;;;;;;;;;3.00;2.00;;;;;14.70;100.00;101179.97;4941025;28;45501;-72
2022/10/25 04:21:53;;;;;;;;;2.00;2.00;;;;;14.75;100.00;101183.72;4944578;28;46143;-72
2022/10/25 04:24:18;;;;;;;;;1.00;1.00;;;;;14.74;100.00;101178.56;4952155;28;46108;-72
2022/10/25 04:26:43;;;;;;;;;2.33;1.67;;;;;14.89;100.00;101191.91;4940998;28;45265;-72
2022/10/25 04:29:10;;;;;;;;;3.67;2.00;;;;;14.91;100.00;101184.53;4939638;28;45345;-72
2022/10/25 04:31:35;;;;;;;;;2.67;2.00;;;;;14.94;100.00;101196.69;4951418;28;45780;-72
2022/10/25 04:34:00;;;;;;;;;3.67;3.00;;;;;14.97;100.00;101190.94;4941247;28;48064;-72
2022/10/25 04:36:28;;;;;;;;;5.00;2.00;;;;;14.99;100.00;101191.56;4949300;28;46049;-72
2022/10/25 04:38:53;;;;;;;;;3.33;2.67;;;;;14.93;100.00;101173.63;4944285;28;45326;-72
2022/10/25 04:41:19;;;;;;;;;4.67;3.00;;;;;15.04;100.00;101191.00;4947350;28;46048;-72
2022/10/25 04:43:46;;;;;;;;;3.33;2.33;;;;;15.06;100.00;101194.31;4945599;28;46462;-72
2022/10/25 04:46:11;;;;;;;;;3.67;3.67;;;;;15.02;100.00;101178.63;4945689;28;45835;-72
2022/10/25 04:48:37;;;;;;;;;3.00;3.00;;;;;15.11;100.00;101199.91;4948188;28;45281;-72
2022/10/25 04:51:03;;;;;;;;;3.00;2.00;;;;;15.07;100.00;101182.56;4940672;28;45310;-73
2022/10/25 04:53:28;;;;;;;;;3.00;2.33;;;;;15.07;100.00;101180.72;4940505;28;46313;-72
2022/10/25 04:55:55;;;;;;;;;3.00;2.67;;;;;15.19;100.00;101190.91;4940479;28;45468;-72
2022/10/25 04:58:21;;;;;;;;;0.00;0.00;;;;;15.21;100.00;101199.56;4940698;28;45349;-72
2022/10/25 05:00:46;;;;;;;;;2.67;2.67;;;;;15.24;100.00;101204.56;4945164;28;45389;-72
2022/10/25 05:03:11;;;;;;;;;3.00;3.00;;;;;15.24;100.00;101189.28;4961556;28;46797;-72
2022/10/25 05:05:37;;;;;;;;;3.33;2.33;;;;;15.29;100.00;101193.25;4946429;28;45368;-72
2022/10/25 05:08:02;;;;;;;;;3.67;2.67;;;;;15.24;100.00;101181.25;4952881;28;45313;-72
2022/10/25 05:10:27;;;;;;;;;3.33;2.67;;;;;15.26;100.00;101189.09;4965329;28;47140;-72
2022/10/25 05:12:54;;;;;;;;;3.00;3.00;;;;;15.30;100.00;101186.88;4957592;28;48371;-73
2022/10/25 05:15:19;;;;;;;;;5.33;3.00;;;;;15.34;100.00;101193.50;4959234;28;45285;-73
2022/10/25 05:17:44;;;;;;;;;2.33;2.33;;;;;15.37;100.00;101196.63;4958882;28;45237;-72
2022/10/25 05:20:09;;;;;;;;;3.00;3.00;;;;;15.39;100.00;101197.22;4959044;28;45254;-72
2022/10/25 05:22:35;;;;;;;;;6.67;1.67;;;;;15.42;100.00;101197.88;4959293;28;45385;-73
2022/10/25 05:25:00;;;;;;;;;4.33;2.67;;;;;15.43;100.00;101203.03;4945814;28;45270;-73
2022/10/25 05:27:25;;;;;;;;;2.00;1.67;;;;;15.43;100.00;101196.84;4940291;28;45356;-73
2022/10/25 05:29:51;;;;;;;;;2.67;2.67;;;;;15.40;100.00;101190.03;4940068;28;49294;-73
2022/10/25 05:32:16;;;;;;;;;3.33;3.33;;;;;15.44;100.00;101202.00;4940009;28;45326;-73
2022/10/25 05:34:41;;;;;;;;;1.50;1.50;;;;;15.42;100.00;101200.56;4942775;28;47896;-73
2022/10/25 05:37:06;;;;;;;;;4.00;4.00;;;;;15.44;100.00;101204.69;4943314;28;45431;-72
2022/10/25 05:39:32;;;;;;;;;2.33;2.33;;;;;15.43;100.00;101200.34;4942211;28;46162;-72
2022/10/25 05:41:59;;;;;;;;;3.00;3.00;;;;;15.45;100.00;101209.03;4942086;28;46945;-73
2022/10/25 05:44:24;;;;;;;;;5.00;3.00;;;;;15.42;100.00;101206.75;4942928;28;45357;-72
2022/10/25 05:46:50;;;;;;;;;4.33;3.00;;;;;15.39;100.00;101207.94;4953312;28;45696;-73
2022/10/25 05:49:16;;;;;;;;;4.33;3.67;;;;;15.39;100.00;101215.16;4945223;28;45734;-73
2022/10/25 05:51:41;;;;;;;;;6.00;4.33;;;;;15.31;100.00;101207.25;4943274;28;46191;-73
2022/10/25 05:54:10;;;;;;;;;3.00;3.00;;;;;15.37;100.00;101207.31;4959209;28;46195;-73
2022/10/25 05:56:37;;;;;;;;;3.00;3.00;;;;;15.35;100.00;101213.88;4962356;28;45781;-73
2022/10/25 05:59:07;;;;;;;;;3.33;3.33;;;;;15.31;100.00;101210.78;4961728;28;45416;-72
2022/10/25 06:01:35;;;;;;;;;4.00;2.00;;;;;15.34;100.00;101222.94;4960753;28;45325;-73
2022/10/25 06:04:00;;;;;;;;;3.00;3.00;;;;;15.35;100.00;101214.72;4961006;28;45412;-72
2022/10/25 06:06:26;;;;;;;;;2.00;1.00;;;;;15.32;100.00;101215.09;4950501;28;45401;-72
2022/10/25 06:08:59;;;;;;;;;3.33;3.00;;;;;15.35;100.00;101217.41;4942589;28;45266;-72
2022/10/25 06:11:26;;;;;;;;;3.00;2.00;;;;;15.33;100.00;101219.47;4946311;28;47457;-72
2022/10/25 06:13:51;;;;;;;;;4.33;3.00;;;;;15.24;100.00;101205.34;4954751;28;45352;-72
2022/10/25 06:16:18;;;;;;;;;2.67;2.67;;;;;15.37;100.00;101217.19;4947409;28;45405;-73
2022/10/25 06:18:44;;;;;;;;;2.67;2.00;;;;;15.38;100.00;101214.31;4950220;28;45531;-73
2022/10/25 06:21:12;;;;;;;;;4.33;4.33;;;;;15.40;100.00;101220.34;4942555;28;45247;-73
2022/10/25 06:23:38;;;;;;;;;5.33;4.33;;;;;15.43;100.00;101220.94;4954909;28;45331;-73
2022/10/25 06:26:07;;;;;;;;;2.00;2.00;;;;;15.42;100.00;101221.97;4942880;28;45361;-73
2022/10/25 06:28:32;;;;;;;;;2.67;2.67;;;;;15.46;100.00;101213.38;4942345;28;45514;-72
2022/10/25 06:31:13;;;;;;;;;3.33;2.33;;;;;15.47;100.00;101231.06;4945181;28;46708;-73
2022/10/25 06:33:39;;;;;;;;;4.67;3.67;;;;;15.39;100.00;101220.53;4942647;28;45407;-72
2022/10/25 06:36:06;;;;;;;;;3.00;2.67;;;;;15.44;100.00;101220.75;4942877;28;45497;-72
2022/10/25 06:38:32;;;;;;;;;3.33;3.00;;;;;15.48;100.00;101227.38;4954029;28;46259;-73
2022/10/25 06:41:03;;;;;;;;;3.67;3.00;;;;;15.50;100.00;101238.72;4942531;28;46497;-73
2022/10/25 06:43:30;;;;;;;;;5.00;3.00;;;;;15.51;100.00;101236.88;4942172;28;45399;-73
2022/10/25 06:45:55;;;;;;;;;4.00;3.00;;;;;15.53;100.00;101241.03;4941369;28;45311;-73
2022/10/25 06:48:21;;;;;;;;;0.67;0.67;;;;;15.53;100.00;101238.34;4942278;28;45486;-72
2022/10/25 06:50:47;;;;;;;;;4.00;3.00;;;;;15.50;100.00;101232.53;4942231;28;46136;-73
2022/10/25 06:53:13;;;;;;;;;2.00;1.00;;;;;15.59;100.00;101238.59;4957056;28;46156;-73
2022/10/25 06:55:38;;;;;;;;;3.00;3.00;;;;;15.59;100.00;101236.72;4953359;28;45411;-73
2022/10/25 06:58:03;;;;;;;;;4.33;3.00;;;;;15.65;100.00;101243.97;4942142;28;46084;-73
2022/10/25 07:00:29;;;;;;;;;2.00;2.00;;;;;15.66;100.00;101247.50;4944434;28;53122;-73
2022/10/25 07:02:56;;;;;;;;;2.00;2.00;;;;;15.67;100.00;101245.63;4962577;28;45296;-73
2022/10/25 07:05:21;;;;;;;;;2.33;2.33;;;;;15.74;100.00;101258.06;4960203;28;46759;-73
2022/10/25 07:07:47;;;;;;;;;4.33;2.00;;;;;15.64;100.00;101238.81;4967003;28;46093;-75
2022/10/25 07:10:14;;;;;;;;;7.00;5.33;;;;;15.78;100.00;101261.19;4951899;28;45272;-73
2022/10/25 07:12:39;;;;;;;;;3.00;3.00;;;;;15.79;100.00;101254.78;4950559;28;45282;-73
2022/10/25 07:15:05;;;;;;;;;3.00;3.00;;;;;15.73;100.00;101245.69;4948059;28;45514;-75
2022/10/25 07:17:30;;;;;;;;;2.33;2.00;;;;;15.83;100.00;101255.25;4948427;28;45449;-73
2022/10/25 07:19:56;;;;;;;;;4.00;3.00;;;;;15.84;100.00;101260.41;4941796;28;45326;-73
2022/10/25 07:22:22;;;;;;;;;3.00;3.00;;;;;15.87;100.00;101251.13;4956910;28;45419;-73
2022/10/25 07:24:47;;;;;;;;;1.67;1.67;;;;;15.87;100.00;101249.25;4949362;28;45411;-74
2022/10/25 07:27:13;;;;;;;;;2.67;0.33;;;;;15.86;100.00;101252.16;4955316;28;45337;-76
2022/10/25 07:29:38;;;;;;;;;6.00;5.33;;;;;15.87;100.00;101243.91;4947267;28;46971;-74
2022/10/25 07:32:04;;;;;;;;;7.67;6.67;;;;;15.94;100.00;101252.00;4949681;28;45358;-75
2022/10/25 07:34:29;;;;;;;;;7.00;6.33;;;;;16.03;100.00;101258.88;4941691;28;45251;-76
2022/10/25 07:36:54;;;;;;;;;5.00;5.00;;;;;16.07;100.00;101259.28;4945143;28;45444;-76
2022/10/25 07:39:20;;;;;;;;;5.00;4.33;;;;;16.12;100.00;101266.75;4951125;28;45526;-76
2022/10/25 07:41:45;;;;;;;;;5.33;3.33;;;;;16.17;100.00;101269.69;4942408;28;45635;-76
2022/10/25 07:44:10;;;;;;;;;5.33;3.67;;;;;16.23;100.00;101266.22;4941810;28;45434;-76
2022/10/25 07:46:35;;;;;;;;;7.00;4.33;;;;;16.22;100.00;101258.34;4940587;28;45487;-76
2022/10/25 07:49:01;;;;;;;;;5.67;4.00;;;;;16.23;100.00;101257.31;4940258;28;45349;-76
2022/10/25 07:51:26;;;;;;;;;5.00;4.33;;;;;16.31;100.00;101259.00;4951209;28;45637;-76
2022/10/25 07:53:52;;;;;;;;;5.33;4.33;;;;;16.28;100.00;101254.84;4942787;28;45506;-76
2022/10/25 07:56:18;;;;;;;;;58.50;47.25;;;;;16.43;100.00;101273.47;4938648;28;45421;-76
2022/10/25 07:58:44;;;;;;;;;4.00;4.00;;;;;16.44;100.00;101266.28;4938985;28;45473;-76
2022/10/25 08:01:10;;;;;;;;;2.67;2.00;;;;;16.53;100.00;101265.88;4941792;28;45338;-76
2022/10/25 08:03:36;;;;;;;;;2.00;2.00;;;;;16.49;100.00;101251.22;4952429;28;45333;-75
2022/10/25 08:06:02;;;;;;;;;2.00;2.00;;;;;16.67;100.00;101260.56;4974485;28;46430;-75
2022/10/25 08:08:28;;;;;;;;;0.67;0.67;;;;;16.69;100.00;101263.88;4947130;28;48361;-75
2022/10/25 08:10:55;;;;;;;;;3.67;2.33;;;;;16.69;100.00;101263.88;4956872;28;45359;-75
2022/10/25 08:13:20;;;;;;;;;3.00;3.00;;;;;16.74;100.00;101261.44;4950912;28;45432;-76
2022/10/25 08:15:50;;;;;;;;;4.33;3.00;;;;;16.79;100.00;101271.53;4940836;28;45432;-76
2022/10/25 08:18:15;;;;;;;;;3.00;2.00;;;;;16.90;100.00;101273.63;4940981;28;46431;-76
2022/10/25 08:20:41;;;;;;;;;2.00;2.00;;;;;16.97;100.00;101272.81;4953198;28;45647;-75
2022/10/25 08:23:06;;;;;;;;;2.00;2.00;;;;;17.03;100.00;101267.44;4952608;28;45292;-76
2022/10/25 08:25:31;;;;;;;;;1.00;1.00;;;;;17.09;100.00;101273.88;4942271;28;51004;-75
2022/10/25 08:27:57;;;;;;;;;58.25;47.50;;;;;17.10;100.00;101263.97;4940924;28;45833;-76
2022/10/25 08:30:22;;;;;;;;;4.00;3.67;;;;;17.16;100.00;101271.22;4940772;28;45276;-76
2022/10/25 08:32:47;;;;;;;;;3.33;2.00;;;;;17.23;100.00;101269.38;4941795;28;45329;-76
2022/10/25 08:35:14;;;;;;;;;2.67;2.67;;;;;17.25;100.00;101261.09;4945273;28;45357;-76
2022/10/25 08:37:39;;;;;;;;;4.00;3.00;;;;;17.26;100.00;101255.53;4940737;28;46355;-75
2022/10/25 08:40:05;;;;;;;;;3.00;2.00;;;;;17.39;100.00;101253.88;4939433;28;45439;-75
2022/10/25 08:42:50;;;;;;;;;3.00;3.00;;;;;17.44;100.00;101256.75;4940527;28;45413;-76
2022/10/25 08:45:27;;;;;;;;;3.33;2.33;;;;;17.49;100.00;101254.28;4968168;28;46801;-75
2022/10/25 08:47:55;;;;;;;;;3.00;1.33;;;;;17.51;100.00;101257.56;4952214;28;47159;-76
2022/10/25 08:50:47;;;;;;;;;2.00;2.00;;;;;17.52;100.00;101253.03;4967804;28;46090;-76
2022/10/25 08:53:21;;;;;;;;;426.60;386.20;;;;;17.39;100.00;101230.50;4952057;28;45364;-76
2022/10/25 08:55:50;;;;;;;;;22.00;20.33;;;;;17.52;100.00;101250.34;4940555;28;45372;-77
2022/10/25 08:58:33;;;;;;;;;4.33;3.33;;;;;17.48;100.00;101247.22;4940199;28;46195;-76
2022/10/25 09:01:05;;;;;;;;;2.00;2.00;;;;;17.47;100.00;101242.91;4953713;28;45557;-76
2022/10/25 09:03:30;;;;;;;;;2.00;2.00;;;;;17.39;100.00;101232.38;4941150;28;45320;-76
2022/10/25 09:06:20;;;;;;;;;1.00;1.00;;;;;17.42;100.00;101251.59;4940131;28;45359;-76
2022/10/25 09:09:07;;;;;;;;;4.67;3.67;;;;;17.29;100.00;101232.78;4941685;28;46086;-75
2022/10/25 09:11:46;;;;;;;;;0.00;0.00;;;;;17.34;100.00;101262.56;4978538;28;45321;-76
2022/10/25 09:14:32;;;;;;;;;2.33;1.67;;;;;17.28;100.00;101258.84;4951756;28;45558;-76
2022/10/25 09:17:17;;;;;;;;;0.00;0.00;;;;;17.27;100.00;101251.78;4943810;28;45606;-77
2022/10/25 09:20:05;;;;;;;;;2.00;2.00;;;;;17.33;100.00;101252.81;4943473;28;45399;-76
2022/10/25 09:22:46;;;;;;;;;1.33;1.00;;;;;17.33;100.00;101255.50;4950647;28;45284;-76
2022/10/25 09:25:37;;;;;;;;;1.00;1.00;;;;;17.40;100.00;101256.34;4947786;28;45414;-76
2022/10/25 09:28:10;;;;;;;;;614.20;565.20;;;;;17.52;100.00;101259.25;4944490;28;45426;-76
2022/10/25 09:30:40;;;;;;;;;5.67;5.67;;;;;17.61;100.00;101245.56;4943371;28;45441;-76
2022/10/25 09:33:16;;;;;;;;;1.00;1.00;;;;;17.74;100.00;101259.00;4943826;28;45461;-76
2022/10/25 09:35:45;;;;;;;;;0.33;0.33;;;;;17.83;100.00;101256.91;4943478;28;45348;-76
2022/10/25 09:38:20;;;;;;;;;2.33;0.67;;;;;17.89;100.00;101247.16;4943429;28;45307;-76
2022/10/25 09:41:05;;;;;;;;;1.67;1.67;;;;;17.81;100.00;101228.59;4943101;28;45207;-76
2022/10/25 09:43:46;;;;;;;;;2.00;2.00;;;;;17.98;100.00;101256.66;4950332;28;45503;-76
2022/10/25 09:46:58;;;;;;;;;375.50;336.25;;;;;17.79;100.00;101226.94;4951800;28;45337;-76
2022/10/25 09:49:36;;;;;;;;;2.33;2.33;;;;;17.96;100.00;101255.22;4903706;28;45673;-76
2022/10/25 09:52:32;;;;;;;;;5.00;4.00;;;;;17.98;100.00;101256.66;4947220;28;45380;-75
2022/10/25 09:55:35;;;;;;;;;2.00;1.67;;;;;18.06;100.00;101252.91;4943142;28;45372;-75
2022/10/25 09:58:01;;;;;;;;;3.67;2.00;;;;;18.02;100.00;101231.00;4943041;28;45399;-76
2022/10/25 10:00:27;;;;;;;;;4.00;2.00;;;;;18.19;100.00;101252.06;4945786;28;45350;-76
2022/10/25 10:02:53;;;;;;;;;2.00;2.00;;;;;18.24;100.00;101244.19;4944729;28;45982;-76
2022/10/25 10:05:20;;;;;;;;;3.00;3.00;;;;;18.23;100.00;101237.16;4967281;28;46050;-76
2022/10/25 10:07:47;;;;;;;;;2.00;2.00;;;;;18.27;100.00;101241.09;4974863;28;45447;-76
2022/10/25 10:10:23;;;;;;;;;1.00;1.00;;;;;18.32;100.00;101240.44;4949860;28;46735;-76
2022/10/25 10:13:20;;;;;;;;;0.67;0.33;;;;;18.39;100.00;101241.22;4946765;28;45267;-76
2022/10/25 10:15:56;;;;;;;;;0.00;0.00;;;;;18.50;100.00;101239.72;4969623;28;45239;-76
2022/10/25 10:18:30;;;;;;;;;2.00;2.00;;;;;18.54;100.00;101240.94;4943539;28;45433;-75
2022/10/25 10:21:10;;;;;;;;;0.25;0.25;;;;;18.59;100.00;101234.09;4941665;28;45243;-75
2022/10/25 10:24:01;;;;;;;;;4.25;1.75;;;;;18.49;100.00;101221.91;4955659;28;48642;-75
2022/10/25 10:26:44;;;;;;;;;43.67;34.67;;;;;18.50;100.00;101239.72;4943128;28;45310;-76
2022/10/25 10:29:19;;;;;;;;;2.67;1.67;;;;;18.45;100.00;101234.16;4947510;28;45307;-77
2022/10/25 10:31:53;;;;;;;;;1.67;1.00;;;;;18.43;100.00;101212.00;4988372;28;46405;-77
2022/10/25 10:34:33;;;;;;;;;1.00;1.00;;;;;18.52;100.00;101218.78;4954870;28;46351;-76
2022/10/25 10:37:03;;;;;;;;;2.67;2.00;;;;;18.67;100.00;101236.50;4964423;28;44655;-77
2022/10/25 10:39:28;;;;;;;;;1.00;1.00;;;;;18.75;100.00;101232.75;4965313;28;45224;-76
2022/10/25 10:42:13;;;;;;;;;3.00;1.25;;;;;18.92;100.00;101236.53;4968837;28;45230;-77
2022/10/25 10:44:38;;;;;;;;;1.00;1.00;;;;;18.94;99.70;101225.56;4956879;28;45287;-77
2022/10/25 10:47:19;;;;;;;;;5.00;2.00;;;;;19.03;99.73;101231.50;4966825;28;45279;-76
2022/10/25 10:49:46;;;;;;;;;1.67;1.67;;;;;19.09;99.11;101229.84;4970040;28;45399;-77
2022/10/25 10:52:35;;;;;;;;;2.00;2.00;;;;;19.11;99.30;101235.81;4976042;28;45381;-77
2022/10/25 10:55:01;;;;;;;;;2.00;2.00;;;;;19.11;98.27;101227.75;4953093;28;46229;-77
2022/10/25 10:57:32;;;;;;;;;4.00;1.33;;;;;18.99;98.78;101214.13;4957511;28;45396;-78
2022/10/25 11:00:00;;;;;;;;;3.00;1.00;;;;;18.97;98.30;101222.44;4991220;28;45414;-77
2022/10/25 11:02:38;;;;;;;;;2.75;2.00;;;;;18.95;98.13;101221.00;4974000;28;45408;-77
2022/10/25 11:05:17;;;;;;;;;2.67;2.00;;;;;18.92;99.10;101220.38;4948652;28;46249;-76
2022/10/25 11:07:42;;;;;;;;;2.67;2.67;;;;;18.84;99.47;101203.69;4945904;28;45549;-78
2022/10/25 11:10:19;;;;;;;;;4.00;3.00;;;;;18.77;99.41;101212.63;4945444;28;45318;-76
2022/10/25 11:12:44;;;;;;;;;2.33;2.33;;;;;18.73;99.08;101203.34;4971973;28;45228;-76
2022/10/25 11:15:11;;;;;;;;;3.00;3.00;;;;;18.73;99.64;101199.81;4946560;28;46147;-76
2022/10/25 11:17:46;;;;;;;;;5.67;4.00;;;;;18.77;99.28;101199.16;4973647;28;45331;-76
2022/10/25 11:20:26;;;;;;;;;4.33;4.33;;;;;18.89;100.00;101201.97;4958069;28;45280;-76
2022/10/25 11:23:00;;;;;;;;;4.00;3.33;;;;;18.99;100.00;101195.28;4952865;28;45274;-76
2022/10/25 11:25:33;;;;;;;;;3.00;2.00;;;;;19.07;100.00;101196.88;4959780;28;47195;-75
2022/10/25 11:28:24;;;;;;;;;2.33;2.33;;;;;19.13;100.00;101187.94;4950767;28;45399;-76
2022/10/25 11:31:05;;;;;;;;;3.67;3.33;;;;;19.15;99.54;101181.28;4962188;28;45374;-76